• pl
  • eng

Awiacja
Komunikaty METAR z lotnisk wojskowych. 12:01 19.10.2018

METAR EPCE 191000Z 02005KT 310V060 CAVOK 12/06
Q1024 RMK 124 066 0/0 =

METAR EPDA 191000Z 28005KT 9999 SCT039 12/09
Q1025 RMK 124 081 4/4 =

METAR EPDE 191000Z 25004KT 5000 BR NSC 13/10 Q1021 RMK 132 080 3/3=

METAR COR EPIR 191000Z 35008KT 8000 CVC021 12/11 Q1024 RMK 124 091
8/8=

METAR EPKS 191000Z VRB01KT 3000 BR OVC005 13/12 Q1024 RMK 125 097
8/8=

METAR EPLK 191000Z NIL=

METAR EPLY 191000Z 32002KT 1500 BR OVC003 11/11 Q1024 RMK 113 097
8/8=

METAR EPMB 191000Z 01008KT 9999 FEW030 14/06 Q1024 RMK 137 059
2/2=

METAR EPMI 191000Z NIL=

METAR EPMM 191000Z NIL=

METAR EPNA 191000Z 09004KT 9999 SCT050 14/06 Q1024 RMK 144 056 4/4=

METAR EPOK 191000Z 02008KT 9999 FEW030 SCT/// 13/06
Q1024 RMK 134 059 3/1=

METAR EPPR 191000Z 35008KT 9999 FEW031 14/04 Q1024 RMK 140 052 2/2=

METAR EPPW 191000Z 33002KT 8000 BKN009 OVC025 13/11 Q1023
RMK 134 084 8/5 =

METAR EPRA 191000Z 30006KT 5000 BR SCT100 BKN200 14/10 Q1021 RMK 139
076 5/3=

METAR EPSN 191000Z 29003KT 9999 FEW007 BKN040 10/09 Q1024 RMK 099
096 5/2=

METAR EPTM 191000Z NIL=
 METAR EPSN
Lokalizacja:EPSN Świdwin
Czas:10:00 UTC
Średni kierunek wiatru:290 °
Średnia prędkość wiatru:3 węzłów
Widzialność:10 km i więcej
Pierwsza warstwa chmur:1/8 do 2/8, wysokość podstawy 700 FT
Druga warstwa chmur:5/8 do 7/8, wysokość podstawy 4000 FT
Temperatura powietrza:10 °C
Temperatura punktu rosy:9 °C
Ciśnienie QNH:1024 hPa
Dokładna temperatura powietrza:9,9 °C
Dokładna wilgotność względna:96 %
Zachmurzenie przez wszystkie piętra chmur:5/8
Zachmurzenie przez chmury niskie:2/8
Awiacja.imgw.pl jest pogodowym serwisem informacyjnym
Instytutu Meteorologii i Gospodarki Wodnej Państwowego Instytutu Badawczego.
Copyright IMGW PIB 2009-2011© Wszelkie prawa zastrzeżone.